Time;durP1;ratioP1;P1;durP2;ratioP2;P2;SDS_P1;SDS_P2;PMS_P1;PMS_P2;Temp;Humidity;BMP_temperature;BMP_pressure;BME280_temperature;BME280_humidity;BME280_pressure;Samples;Min_cycle;Max_cycle;Signal;HPM_P1;HPM_P2
2021/12/26 07:55:27;;;;;;;15.73;12.40;;;9.10;99.90;;;;;;5098618;27;20639;-73
2021/12/26 07:57:54;;;;;;;22.07;14.50;;;9.10;99.90;;;;;;5087047;28;20447;-72
2021/12/26 08:00:22;;;;;;;20.97;14.40;;;9.00;99.90;;;;;;5086522;28;20886;-70
2021/12/26 08:02:49;;;;;;;17.67;14.30;;;8.50;99.90;;;;;;5086459;28;20462;-73
2021/12/26 08:05:17;;;;;;;19.93;13.77;;;8.40;99.90;;;;;;5086692;28;20471;-72
2021/12/26 08:07:45;;;;;;;17.87;12.17;;;8.30;99.90;;;;;;5087005;28;20461;-72
2021/12/26 08:10:12;;;;;;;17.73;12.50;;;;;;;;;;5086934;28;20877;-73
2021/12/26 08:12:40;;;;;;;18.17;12.30;;;8.50;99.90;;;;;;5087004;28;20452;-73
2021/12/26 08:15:08;;;;;;;19.97;11.83;;;8.60;99.90;;;;;;5086216;28;20496;-73
2021/12/26 08:17:38;;;;;;;19.37;12.40;;;8.50;99.90;;;;;;5086686;28;20453;-72
2021/12/26 08:20:07;;;;;;;15.50;11.53;;;8.60;99.90;;;;;;5086796;28;20465;-71
2021/12/26 08:22:34;;;;;;;15.73;10.73;;;8.50;99.90;;;;;;5086869;28;20455;-73
2021/12/26 08:25:01;;;;;;;15.37;11.33;;;8.50;99.90;;;;;;5086556;28;20479;-73
2021/12/26 08:27:29;;;;;;;14.10;10.60;;;;;;;;;;5085059;28;20464;-75
2021/12/26 08:29:57;;;;;;;17.90;11.03;;;8.40;99.90;;;;;;5086356;28;21041;-72
2021/12/26 08:32:24;;;;;;;13.37;10.63;;;8.40;99.90;;;;;;5086312;28;20455;-72
2021/12/26 08:34:52;;;;;;;14.13;10.30;;;8.60;99.90;;;;;;5086327;28;20890;-73
2021/12/26 08:37:19;;;;;;;11.97;9.30;;;8.80;99.90;;;;;;5086502;28;20857;-72
2021/12/26 08:39:47;;;;;;;13.30;10.23;;;9.10;99.90;;;;;;5086171;28;20460;-74
2021/12/26 08:42:15;;;;;;;14.50;10.23;;;9.30;99.90;;;;;;5086349;28;20487;-73
2021/12/26 08:44:43;;;;;;;14.80;9.80;;;9.30;99.90;;;;;;5084733;28;20475;-75
2021/12/26 08:47:12;;;;;;;12.83;9.23;;;9.30;99.90;;;;;;5086252;28;20486;-76
2021/12/26 08:49:40;;;;;;;14.70;9.77;;;9.30;99.90;;;;;;5086011;28;20455;-73
2021/12/26 08:52:08;;;;;;;15.27;9.80;;;9.20;99.90;;;;;;5085696;28;20944;-72
2021/12/26 08:54:35;;;;;;;13.83;9.47;;;9.10;99.90;;;;;;5084581;28;20495;-72
2021/12/26 08:57:03;;;;;;;15.60;10.70;;;9.30;99.90;;;;;;5065863;28;20458;-74
2021/12/26 08:59:30;;;;;;;12.30;8.77;;;9.40;99.90;;;;;;5065510;28;20468;-73
2021/12/26 09:01:59;;;;;;;14.13;8.23;;;9.40;99.90;;;;;;5065530;28;20522;-73
2021/12/26 09:04:30;;;;;;;21.07;8.03;;;9.30;99.90;;;;;;5065516;28;20473;-75
2021/12/26 09:06:58;;;;;;;13.43;8.90;;;9.50;99.90;;;;;;5051833;28;20480;-74
2021/12/26 09:09:25;;;;;;;12.17;8.60;;;9.70;99.90;;;;;;5052210;28;20999;-75
2021/12/26 09:11:52;;;;;;;11.70;8.13;;;9.80;99.90;;;;;;5052218;28;20449;-75
2021/12/26 09:14:19;;;;;;;14.93;9.80;;;10.00;99.90;;;;;;5052043;28;20501;-73
2021/12/26 09:16:46;;;;;;;16.10;9.27;;;9.70;99.90;;;;;;5052160;28;20576;-76
2021/12/26 09:19:13;;;;;;;13.10;8.57;;;9.80;99.90;;;;;;5052122;28;20461;-74
2021/12/26 09:21:42;;;;;;;12.00;8.53;;;9.70;99.90;;;;;;5052225;28;20454;-75
2021/12/26 09:24:09;;;;;;;15.83;8.63;;;;;;;;;;5051679;28;20523;-77
2021/12/26 09:26:36;;;;;;;14.93;9.40;;;;;;;;;;5051929;28;20461;-74
2021/12/26 09:29:04;;;;;;;14.77;9.53;;;10.00;99.90;;;;;;5051825;28;20938;-71
2021/12/26 09:31:31;;;;;;;15.00;11.27;;;;;;;;;;5051831;28;21071;-72
2021/12/26 09:33:58;;;;;;;14.40;9.20;;;10.00;99.90;;;;;;5051655;28;20490;-70
2021/12/26 09:36:25;;;;;;;17.50;9.27;;;9.60;99.90;;;;;;5051772;28;20880;-69
2021/12/26 09:38:54;;;;;;;13.23;9.03;;;;;;;;;;5051492;28;20461;-69
2021/12/26 09:41:21;;;;;;;10.43;7.33;;;;;;;;;;5051448;28;20523;-72
2021/12/26 09:43:48;;;;;;;11.50;8.30;;;10.50;99.90;;;;;;5051691;28;20457;-70
2021/12/26 09:46:16;;;;;;;11.40;7.73;;;;;;;;;;5051547;28;20457;-70
2021/12/26 09:48:43;;;;;;;12.40;8.37;;;10.50;99.90;;;;;;5051678;28;20902;-72
2021/12/26 09:51:10;;;;;;;13.27;8.70;;;10.50;99.90;;;;;;5051367;28;20458;-71
2021/12/26 09:53:39;;;;;;;15.47;9.40;;;10.40;99.90;;;;;;5050998;28;20490;-70
2021/12/26 09:56:09;;;;;;;13.73;9.47;;;12.40;99.90;;;;;;5051112;28;20571;-72
2021/12/26 09:58:36;;;;;;;16.17;9.23;;;10.60;99.90;;;;;;5051414;28;20454;-70
2021/12/26 10:01:04;;;;;;;16.00;9.73;;;;;;;;;;5051397;28;20990;-69
2021/12/26 10:03:34;;;;;;;20.53;11.90;;;;;;;;;;5050872;28;20946;-73
2021/12/26 10:06:13;;;;;;;20.23;10.10;;;11.00;99.90;;;;;;5050938;28;20500;-69
2021/12/26 10:08:56;;;;;;;15.50;10.33;;;11.00;99.90;;;;;;5050914;28;20454;-69
2021/12/26 10:11:27;;;;;;;16.33;10.43;;;11.00;99.90;;;;;;5050912;28;20959;-69
2021/12/26 10:13:56;;;;;;;15.47;11.23;;;;;;;;;;5051025;28;20919;-68
2021/12/26 10:16:26;;;;;;;14.77;10.47;;;11.10;99.90;;;;;;5050580;28;20558;-69
2021/12/26 10:18:54;;;;;;;17.00;10.93;;;11.40;99.90;;;;;;5050675;28;20974;-68
2021/12/26 10:21:25;;;;;;;17.97;11.87;;;;;;;;;;5050762;28;20461;-68
2021/12/26 10:23:54;;;;;;;12.63;9.03;;;12.40;99.90;;;;;;5050848;28;20457;-68
2021/12/26 10:26:21;;;;;;;13.23;8.47;;;;;;;;;;5050962;28;21130;-70
2021/12/26 10:29:08;;;;;;;17.20;9.00;;;11.30;99.90;;;;;;5050746;28;20461;-70
2021/12/26 10:31:37;;;;;;;13.27;9.23;;;11.40;99.90;;;;;;5050096;28;20454;-70
2021/12/26 10:34:04;;;;;;;12.37;7.70;;;;;;;;;;5050614;28;20478;-68
2021/12/26 10:36:31;;;;;;;11.50;7.50;;;11.50;99.90;;;;;;5050475;28;20461;-70
2021/12/26 10:39:09;;;;;;;13.10;8.50;;;11.70;99.90;;;;;;5050570;28;20461;-69
2021/12/26 10:41:42;;;;;;;12.67;8.13;;;11.80;99.90;;;;;;5050306;28;20544;-70
2021/12/26 10:44:43;;;;;;;16.13;8.07;;;11.70;99.90;;;;;;5050128;28;20458;-71
2021/12/26 10:47:12;;;;;;;11.60;8.43;;;12.00;99.90;;;;;;5050293;28;20461;-70
2021/12/26 10:49:44;;;;;;;12.90;8.67;;;12.20;99.90;;;;;;5050375;28;20458;-71
2021/12/26 10:52:14;;;;;;;14.30;7.80;;;12.30;99.90;;;;;;5050084;28;20454;-69
2021/12/26 10:54:44;;;;;;;12.60;7.40;;;12.30;99.90;;;;;;5050602;28;21006;-69
2021/12/26 10:57:19;;;;;;;10.63;6.93;;;12.40;99.90;;;;;;5050383;28;20465;-70
2021/12/26 10:59:58;;;;;;;11.13;6.63;;;12.50;99.90;;;;;;5050117;28;20942;-69
2021/12/26 11:02:28;;;;;;;13.40;7.63;;;12.50;99.90;;;;;;5050125;28;20480;-70
2021/12/26 11:05:00;;;;;;;11.60;7.27;;;12.90;99.90;;;;;;5050334;28;20469;-70
2021/12/26 11:07:27;;;;;;;11.70;7.40;;;13.20;99.90;;;;;;5050059;28;20470;-70
2021/12/26 11:10:11;;;;;;;13.70;8.40;;;13.60;99.90;;;;;;5048779;28;20458;-70
2021/12/26 11:12:47;;;;;;;13.03;8.47;;;13.90;99.90;;;;;;5049764;28;20476;-71
2021/12/26 11:15:17;;;;;;;10.50;7.50;;;;;;;;;;5049646;28;20488;-70
2021/12/26 11:17:47;;;;;;;13.00;7.77;;;;;;;;;;5049313;28;20461;-70
2021/12/26 11:20:37;;;;;;;9.90;7.30;;;14.60;99.90;;;;;;5049895;28;20504;-70
2021/12/26 11:23:10;;;;;;;11.57;8.53;;;14.70;99.90;;;;;;5047690;28;20476;-71
2021/12/26 11:25:39;;;;;;;12.00;9.10;;;14.60;99.90;;;;;;5049655;28;21187;-69
2021/12/26 11:28:07;;;;;;;13.13;9.10;;;14.80;99.90;;;;;;5049607;28;20456;-71
2021/12/26 11:30:35;;;;;;;12.83;9.00;;;14.90;99.90;;;;;;5050036;28;20450;-72
2021/12/26 11:33:08;;;;;;;12.43;9.53;;;15.10;99.90;;;;;;5049717;28;20530;-68
2021/12/26 11:35:37;;;;;;;13.23;8.13;;;15.10;99.90;;;;;;5049258;28;20567;-69
2021/12/26 11:38:05;;;;;;;13.67;9.90;;;15.20;99.90;;;;;;5049501;28;20520;-71
2021/12/26 11:40:33;;;;;;;15.03;10.87;;;15.20;99.90;;;;;;5049581;28;20454;-71
2021/12/26 11:43:39;;;;;;;15.07;10.97;;;15.30;99.90;;;;;;5049328;28;20467;-73
2021/12/26 11:46:16;;;;;;;18.60;11.23;;;15.40;99.90;;;;;;5039414;28;20559;-69
2021/12/26 11:49:07;;;;;;;14.70;11.93;;;15.40;99.90;;;;;;5049391;28;20452;-71
2021/12/26 11:52:06;;;;;;;15.93;10.67;;;15.50;99.90;;;;;;5049336;28;20763;-69
2021/12/26 11:54:48;;;;;;;14.80;11.63;;;15.60;99.90;;;;;;5040381;28;20906;-70
2021/12/26 11:57:38;;;;;;;18.23;12.60;;;15.80;99.90;;;;;;5049067;28;20485;-69
2021/12/26 12:00:10;;;;;;;17.90;13.40;;;15.80;99.90;;;;;;5049223;28;20477;-69
2021/12/26 12:02:42;;;;;;;17.70;13.03;;;16.10;99.90;;;;;;5049208;28;20453;-69
2021/12/26 12:05:17;;;;;;;20.13;13.10;;;16.30;99.90;;;;;;5049135;28;20477;-70
2021/12/26 12:07:56;;;;;;;19.30;13.63;;;16.40;99.90;;;;;;5049398;28;20576;-70
2021/12/26 12:10:43;;;;;;;22.00;13.23;;;16.30;99.90;;;;;;5049522;28;20537;-70
2021/12/26 12:13:12;;;;;;;22.30;14.00;;;16.30;99.90;;;;;;5049265;28;20454;-69
2021/12/26 12:15:46;;;;;;;16.97;12.97;;;16.40;99.90;;;;;;5049008;28;20997;-70
2021/12/26 12:18:18;;;;;;;18.77;13.77;;;16.70;99.60;;;;;;5048995;28;20453;-70
2021/12/26 12:20:46;;;;;;;21.43;13.40;;;16.80;99.60;;;;;;5049157;28;20461;-69
2021/12/26 12:23:20;;;;;;;21.20;13.60;;;16.90;99.20;;;;;;5049391;28;20639;-70
2021/12/26 12:25:52;;;;;;;20.07;12.00;;;16.90;98.30;;;;;;5047807;28;20473;-71
2021/12/26 12:28:31;;;;;;;21.03;13.40;;;16.90;98.10;;;;;;5048946;28;20511;-71
2021/12/26 12:31:14;;;;;;;19.10;13.20;;;16.90;98.00;;;;;;5049447;28;20527;-70
2021/12/26 12:33:47;;;;;;;20.37;13.60;;;16.50;97.90;;;;;;5048460;28;20515;-70
2021/12/26 12:36:25;;;;;;;17.13;12.53;;;16.40;98.40;;;;;;5047626;28;20500;-69
2021/12/26 12:38:53;;;;;;;16.67;11.40;;;16.40;97.10;;;;;;5048870;28;20561;-69
2021/12/26 12:41:43;;;;;;;18.10;12.10;;;16.20;97.40;;;;;;5051364;28;20452;-68
2021/12/26 12:44:29;;;;;;;14.00;11.03;;;15.90;98.40;;;;;;5049594;28;20948;-68
2021/12/26 12:47:00;;;;;;;17.50;10.90;;;15.90;99.00;;;;;;5052645;28;20446;-69
2021/12/26 12:49:53;;;;;;;21.50;12.73;;;15.80;99.40;;;;;;5052697;28;20507;-69
2021/12/26 12:52:46;;;;;;;17.10;12.20;;;15.50;99.40;;;;;;5052857;28;20511;-70
2021/12/26 12:55:18;;;;;;;17.27;12.90;;;15.40;99.60;;;;;;5051855;28;20513;-70
2021/12/26 12:57:48;;;;;;;18.33;12.40;;;15.40;99.90;;;;;;5052420;28;20824;-70
2021/12/26 13:00:43;;;;;;;17.30;13.90;;;15.40;99.90;;;;;;5052549;28;20453;-69
2021/12/26 13:03:16;;;;;;;19.93;14.70;;;15.40;99.90;;;;;;5052287;28;21016;-68
2021/12/26 13:05:47;;;;;;;17.47;13.90;;;15.30;99.90;;;;;;5052233;28;20476;-69
2021/12/26 13:08:16;;;;;;;19.90;15.33;;;15.20;99.90;;;;;;5052446;28;20454;-70
2021/12/26 13:10:43;;;;;;;19.30;13.40;;;15.10;99.90;;;;;;5052395;28;20540;-70
2021/12/26 13:13:12;;;;;;;21.00;15.93;;;15.20;99.90;;;;;;5052317;28;20523;-70
2021/12/26 13:15:51;;;;;;;21.83;16.50;;;15.10;99.90;;;;;;5051949;28;20571;-70
2021/12/26 13:18:19;;;;;;;22.07;17.67;;;15.10;99.90;;;;;;5051807;28;20540;-68
2021/12/26 13:20:52;;;;;;;23.90;18.30;;;15.00;99.90;;;;;;5052178;28;20761;-69
2021/12/26 13:23:19;;;;;;;25.13;19.17;;;;;;;;;;5052230;28;20457;-69
2021/12/26 13:25:48;;;;;;;26.50;21.83;;;14.90;99.90;;;;;;5051962;28;20472;-70
2021/12/26 13:28:26;;;;;;;37.97;30.53;;;14.90;99.90;;;;;;5050234;28;20520;-74
2021/12/26 13:30:56;;;;;;;47.90;37.73;;;14.50;99.90;;;;;;5052063;28;20564;-69
2021/12/26 13:33:25;;;;;;;55.00;44.77;;;14.40;99.90;;;;;;5051867;28;20465;-69
2021/12/26 13:35:55;;;;;;;67.03;48.33;;;14.40;99.90;;;;;;5051659;28;20566;-69
2021/12/26 13:38:23;;;;;;;72.70;51.47;;;14.30;99.90;;;;;;5051937;28;20503;-70
2021/12/26 13:40:54;;;;;;;65.63;48.80;;;14.20;99.90;;;;;;5051302;28;20966;-69
2021/12/26 13:43:31;;;;;;;57.10;43.70;;;13.70;99.90;;;;;;5051787;28;20454;-71
2021/12/26 13:45:59;;;;;;;56.73;42.60;;;13.60;99.90;;;;;;5051499;28;20969;-68
2021/12/26 13:48:29;;;;;;;63.50;46.60;;;13.60;99.90;;;;;;5051397;28;20999;-68
2021/12/26 13:50:58;;;;;;;55.30;41.60;;;13.60;99.90;;;;;;5051279;28;20454;-68
2021/12/26 13:53:25;;;;;;;55.20;42.90;;;13.60;99.90;;;;;;5050787;28;20493;-68
2021/12/26 13:55:55;;;;;;;56.30;44.67;;;13.20;99.90;;;;;;5050967;28;20493;-68
2021/12/26 13:58:26;;;;;;;54.67;40.53;;;13.00;99.90;;;;;;5050924;28;20455;-68
2021/12/26 14:00:55;;;;;;;54.23;37.23;;;13.10;99.90;;;;;;5051298;28;20848;-68
2021/12/26 14:03:23;;;;;;;42.47;32.93;;;13.10;99.90;;;;;;5051436;28;20458;-68
2021/12/26 14:05:50;;;;;;;44.80;34.70;;;13.00;99.90;;;;;;5050759;28;20474;-69
2021/12/26 14:08:21;;;;;;;46.40;32.27;;;13.00;99.90;;;;;;5051275;28;20454;-69
2021/12/26 14:10:57;;;;;;;44.20;31.40;;;13.00;99.90;;;;;;5051124;28;20587;-68
2021/12/26 14:13:24;;;;;;;34.40;27.90;;;13.00;99.90;;;;;;5051147;28;20580;-68
2021/12/26 14:15:56;;;;;;;37.20;29.50;;;13.00;99.90;;;;;;5050918;28;20490;-68
2021/12/26 14:18:26;;;;;;;44.63;30.70;;;12.90;99.90;;;;;;5050430;28;20985;-69
2021/12/26 14:20:55;;;;;;;42.93;33.90;;;13.00;99.90;;;;;;5050824;28;20511;-68
2021/12/26 14:23:27;;;;;;;46.00;34.23;;;13.00;99.90;;;;;;5050805;28;20504;-68
2021/12/26 14:25:56;;;;;;;49.10;35.23;;;12.80;99.90;;;;;;5050540;28;21077;-68
2021/12/26 14:28:25;;;;;;;42.20;33.30;;;12.70;99.90;;;;;;5050787;28;20822;-68
2021/12/26 14:30:57;;;;;;;42.87;33.40;;;12.70;99.90;;;;;;5050475;28;20459;-67
2021/12/26 14:33:31;;;;;;;42.07;33.17;;;12.50;99.90;;;;;;5050289;28;21083;-68
2021/12/26 14:36:00;;;;;;;40.80;33.13;;;12.30;99.90;;;;;;5050273;28;20497;-68
2021/12/26 14:38:29;;;;;;;44.03;34.20;;;12.40;99.90;;;;;;5050512;28;20453;-68
2021/12/26 14:40:58;;;;;;;40.73;31.40;;;12.20;99.90;;;;;;5050062;28;20485;-69
2021/12/26 14:43:27;;;;;;;39.33;29.30;;;12.10;99.90;;;;;;5050396;28;20454;-70
2021/12/26 14:45:58;;;;;;;41.73;29.20;;;12.00;99.90;;;;;;5050278;28;20478;-69
2021/12/26 14:48:33;;;;;;;35.53;24.13;;;11.90;99.90;;;;;;5049962;28;20502;-67
2021/12/26 14:51:12;;;;;;;35.27;27.30;;;11.80;99.90;;;;;;5049478;28;20461;-69
2021/12/26 14:53:42;;;;;;;36.57;27.93;;;11.70;99.90;;;;;;5049534;28;20863;-67
2021/12/26 14:56:11;;;;;;;35.77;27.07;;;11.80;99.90;;;;;;5049828;28;20485;-68
2021/12/26 14:58:41;;;;;;;34.43;27.27;;;11.80;99.90;;;;;;5050240;28;20473;-68
2021/12/26 15:01:19;;;;;;;38.30;28.07;;;11.60;99.90;;;;;;5050220;28;20450;-70
2021/12/26 15:03:46;;;;;;;37.10;25.73;;;11.70;99.90;;;;;;5048888;28;20503;-68
2021/12/26 15:06:15;;;;;;;37.27;27.67;;;11.80;99.90;;;;;;5049974;28;20462;-68
2021/12/26 15:08:44;;;;;;;33.53;26.13;;;11.80;99.90;;;;;;5050212;28;20516;-68
2021/12/26 15:11:11;;;;;;;31.30;24.87;;;11.90;99.90;;;;;;5049801;28;20449;-68
2021/12/26 15:13:40;;;;;;;35.40;25.80;;;11.90;99.90;;;;;;5049844;28;20511;-69
2021/12/26 15:16:08;;;;;;;42.00;28.20;;;11.90;99.90;;;;;;5049607;28;20493;-68
2021/12/26 15:18:35;;;;;;;34.97;25.77;;;11.90;99.90;;;;;;5049381;28;20449;-68
2021/12/26 15:21:08;;;;;;;37.57;26.13;;;11.70;99.90;;;;;;5049781;28;20450;-70
2021/12/26 15:23:36;;;;;;;31.70;24.57;;;11.70;99.90;;;;;;5049656;28;20533;-69
2021/12/26 15:26:08;;;;;;;33.70;26.03;;;11.80;99.90;;;;;;5049550;28;20512;-68
2021/12/26 15:28:38;;;;;;;36.30;25.23;;;11.90;99.90;;;;;;5049495;28;20484;-69
2021/12/26 15:31:08;;;;;;;39.87;24.97;;;11.90;99.90;;;;;;5049529;28;20501;-69
2021/12/26 15:33:38;;;;;;;40.67;25.07;;;11.80;99.90;;;;;;5049385;28;20896;-68
2021/12/26 15:36:07;;;;;;;32.40;25.83;;;11.90;99.90;;;;;;5049491;28;20561;-69
2021/12/26 15:38:35;;;;;;;32.50;26.17;;;11.90;99.90;;;;;;5048196;28;20510;-69
2021/12/26 15:41:03;;;;;;;44.37;31.90;;;11.80;99.90;;;;;;5047850;28;20457;-69
2021/12/26 15:43:31;;;;;;;50.03;33.13;;;11.80;99.90;;;;;;5049474;28;20852;-68
2021/12/26 15:45:58;;;;;;;42.40;31.03;;;11.60;99.90;;;;;;5049380;28;20488;-68
2021/12/26 15:48:25;;;;;;;37.23;30.00;;;11.50;99.90;;;;;;5049264;28;20449;-69
2021/12/26 15:50:52;;;;;;;34.37;27.30;;;11.60;99.90;;;;;;5049566;28;20515;-68
2021/12/26 15:53:20;;;;;;;34.03;27.93;;;11.60;99.90;;;;;;5049160;28;20482;-68
2021/12/26 15:55:47;;;;;;;36.23;26.27;;;11.60;99.90;;;;;;5048880;28;21032;-69
2021/12/26 15:58:14;;;;;;;38.07;28.07;;;11.50;99.90;;;;;;5049446;28;20821;-69
2021/12/26 16:00:42;;;;;;;41.60;29.03;;;11.60;99.90;;;;;;5049013;28;20781;-69
2021/12/26 16:03:09;;;;;;;33.90;27.77;;;11.50;99.90;;;;;;5049036;28;20858;-71
2021/12/26 16:05:36;;;;;;;37.77;29.53;;;11.50;99.90;;;;;;5049183;28;20869;-72
2021/12/26 16:08:04;;;;;;;37.40;29.73;;;11.50;99.90;;;;;;5049341;28;20462;-68
2021/12/26 16:10:31;;;;;;;40.43;28.90;;;11.60;99.90;;;;;;5048569;28;20750;-70
2021/12/26 16:12:58;;;;;;;36.33;26.40;;;11.60;99.90;;;;;;5048972;28;20450;-68
2021/12/26 16:15:25;;;;;;;42.00;30.20;;;11.50;99.90;;;;;;5049893;28;20496;-69
2021/12/26 16:17:54;;;;;;;36.17;25.50;;;11.30;99.90;;;;;;5052846;28;20485;-70
2021/12/26 16:20:21;;;;;;;31.20;23.00;;;10.80;99.90;;;;;;5056568;28;20942;-69
2021/12/26 16:22:49;;;;;;;33.00;26.33;;;10.70;99.90;;;;;;5073030;28;20449;-68
2021/12/26 16:25:18;;;;;;;33.80;24.03;;;10.60;99.90;;;;;;5072540;28;20538;-69
2021/12/26 16:27:48;;;;;;;34.60;24.30;;;10.40;99.90;;;;;;5072974;28;20494;-69
2021/12/26 16:30:17;;;;;;;36.57;26.07;;;10.50;99.90;;;;;;5071543;28;20448;-71
2021/12/26 16:32:45;;;;;;;33.83;25.73;;;10.40;99.90;;;;;;5072784;28;20445;-71
2021/12/26 16:35:15;;;;;;;33.30;23.67;;;10.40;99.90;;;;;;5072806;28;20468;-71
2021/12/26 16:37:43;;;;;;;33.23;25.17;;;10.50;99.90;;;;;;5072362;28;20553;-70
2021/12/26 16:40:13;;;;;;;35.47;23.37;;;10.50;99.90;;;;;;5072466;28;20502;-69
2021/12/26 16:42:41;;;;;;;30.10;22.67;;;10.60;99.90;;;;;;5072703;28;20804;-68
2021/12/26 16:45:10;;;;;;;38.43;24.60;;;10.70;99.90;;;;;;5072724;28;20812;-69
2021/12/26 16:47:37;;;;;;;32.00;24.30;;;10.70;99.90;;;;;;5072667;28;20444;-68
2021/12/26 16:50:06;;;;;;;31.00;25.67;;;10.50;99.90;;;;;;5072564;28;20457;-68
2021/12/26 16:52:34;;;;;;;32.47;24.83;;;10.60;99.90;;;;;;5072509;28;20509;-69
2021/12/26 16:55:01;;;;;;;31.13;24.77;;;10.70;99.90;;;;;;5067646;28;20485;-70
2021/12/26 16:57:30;;;;;;;35.23;25.27;;;10.70;99.90;;;;;;5052502;28;20539;-70
2021/12/26 16:59:59;;;;;;;29.37;23.53;;;10.70;99.90;;;;;;5052501;28;21005;-70
2021/12/26 17:02:27;;;;;;;27.77;23.13;;;10.70;99.90;;;;;;5052351;28;20846;-69
2021/12/26 17:04:55;;;;;;;32.77;24.90;;;10.80;99.90;;;;;;5051106;28;20897;-70
2021/12/26 17:07:22;;;;;;;32.10;23.30;;;10.80;99.90;;;;;;5052165;28;20764;-69
2021/12/26 17:09:51;;;;;;;35.03;25.93;;;10.80;99.90;;;;;;5052041;28;20457;-69
2021/12/26 17:12:18;;;;;;;30.00;23.90;;;10.80;99.90;;;;;;5051985;28;20522;-69
2021/12/26 17:14:45;;;;;;;35.93;26.90;;;10.80;99.90;;;;;;5052255;28;20978;-70
2021/12/26 17:17:12;;;;;;;44.40;26.70;;;10.70;99.90;;;;;;5052022;28;20718;-70
2021/12/26 17:19:39;;;;;;;29.23;23.30;;;10.80;99.90;;;;;;5051781;28;20466;-69
2021/12/26 17:22:06;;;;;;;31.60;23.47;;;10.90;99.90;;;;;;5051876;28;20910;-68
2021/12/26 17:24:35;;;;;;;32.50;23.37;;;10.80;99.90;;;;;;5051597;28;20983;-70
2021/12/26 17:27:15;;;;;;;36.67;22.93;;;10.70;99.90;;;;;;5051592;28;20534;-72
2021/12/26 17:29:42;;;;;;;30.70;24.23;;;10.70;99.90;;;;;;5051877;28;20473;-70
2021/12/26 17:32:10;;;;;;;32.13;23.10;;;10.80;99.90;;;;;;5051306;28;20457;-69
2021/12/26 17:34:37;;;;;;;31.07;23.10;;;10.80;99.90;;;;;;5051401;28;20519;-69
2021/12/26 17:37:04;;;;;;;34.43;20.67;;;10.70;99.90;;;;;;5051614;28;20485;-69
2021/12/26 17:39:31;;;;;;;32.30;21.13;;;10.60;99.90;;;;;;5051075;28;20515;-69
2021/12/26 17:41:58;;;;;;;29.70;21.57;;;10.60;99.90;;;;;;5051505;28;20453;-69
2021/12/26 17:44:27;;;;;;;21.60;16.13;;;10.50;99.90;;;;;;5051426;28;20485;-70
2021/12/26 17:46:54;;;;;;;22.30;16.90;;;10.40;99.90;;;;;;5051409;28;20504;-69
2021/12/26 17:49:21;;;;;;;29.50;20.27;;;10.40;99.90;;;;;;5051413;28;20449;-67
2021/12/26 17:51:50;;;;;;;29.37;19.40;;;10.50;99.90;;;;;;5051553;28;20561;-69
2021/12/26 17:54:17;;;;;;;26.00;18.37;;;10.50;99.90;;;;;;5050992;28;20604;-70
2021/12/26 17:56:44;;;;;;;25.27;17.90;;;10.40;99.90;;;;;;5050585;28;20539;-68
2021/12/26 17:59:11;;;;;;;26.20;17.63;;;10.50;99.90;;;;;;5050867;28;20462;-71
2021/12/26 18:01:40;;;;;;;25.57;17.87;;;10.60;99.90;;;;;;5051046;28;20450;-68
2021/12/26 18:04:08;;;;;;;20.00;15.50;;;10.60;99.90;;;;;;5051171;28;20983;-73
2021/12/26 18:06:37;;;;;;;22.97;16.63;;;10.60;99.90;;;;;;5051294;28;20454;-69
2021/12/26 18:09:04;;;;;;;27.50;18.03;;;10.70;99.90;;;;;;5051029;28;20874;-72
2021/12/26 18:11:31;;;;;;;24.43;17.17;;;10.60;99.90;;;;;;5051082;28;20461;-70
2021/12/26 18:13:59;;;;;;;23.77;16.20;;;10.60;99.90;;;;;;5050876;28;20800;-71
2021/12/26 18:16:26;;;;;;;21.20;16.10;;;10.50;99.90;;;;;;5050766;28;20860;-70
2021/12/26 18:18:55;;;;;;;23.33;15.90;;;10.50;99.90;;;;;;5051238;28;20453;-69
2021/12/26 18:21:22;;;;;;;22.23;16.07;;;10.50;99.90;;;;;;5051103;28;20446;-68
2021/12/26 18:23:49;;;;;;;21.40;16.40;;;10.50;99.90;;;;;;5050338;28;20461;-70
2021/12/26 18:26:19;;;;;;;19.60;13.83;;;10.30;99.90;;;;;;5050853;28;20461;-71
2021/12/26 18:28:46;;;;;;;19.93;14.83;;;10.30;99.90;;;;;;5050485;28;20544;-71
2021/12/26 18:31:13;;;;;;;17.07;13.03;;;10.30;99.90;;;;;;5050560;28;20469;-68
2021/12/26 18:33:40;;;;;;;20.27;13.30;;;10.20;99.90;;;;;;5050437;28;20480;-71
2021/12/26 18:36:09;;;;;;;18.60;13.40;;;10.20;99.90;;;;;;5050547;28;20458;-71
2021/12/26 18:38:36;;;;;;;18.60;12.20;;;10.20;99.90;;;;;;5049495;28;21009;-69
2021/12/26 18:41:03;;;;;;;22.70;13.97;;;10.10;99.90;;;;;;5050448;28;20457;-69
2021/12/26 18:43:31;;;;;;;17.50;11.23;;;10.20;99.90;;;;;;5050483;28;20822;-69
2021/12/26 18:46:00;;;;;;;16.60;11.57;;;10.20;99.90;;;;;;5050481;28;20482;-70
2021/12/26 18:48:27;;;;;;;16.23;11.40;;;10.30;99.90;;;;;;5050561;28;20835;-70
2021/12/26 18:50:54;;;;;;;15.73;10.70;;;10.10;99.90;;;;;;5050494;28;20461;-70
2021/12/26 18:53:23;;;;;;;14.30;11.27;;;10.10;99.90;;;;;;5049538;28;20832;-68
2021/12/26 18:55:52;;;;;;;18.67;10.03;;;10.10;99.90;;;;;;5049992;28;20473;-69
2021/12/26 18:58:19;;;;;;;12.83;9.70;;;10.10;99.90;;;;;;5050092;28;20497;-73
2021/12/26 19:00:48;;;;;;;14.63;8.73;;;10.10;99.90;;;;;;5050207;28;20446;-68
2021/12/26 19:03:16;;;;;;;12.83;8.37;;;10.10;99.90;;;;;;5050109;28;20462;-69
2021/12/26 19:05:47;;;;;;;13.00;7.67;;;10.10;99.90;;;;;;5049944;28;20469;-68
2021/12/26 19:08:16;;;;;;;13.80;8.73;;;10.20;99.90;;;;;;5049742;28;20533;-70
2021/12/26 19:10:47;;;;;;;12.60;7.47;;;10.20;99.90;;;;;;5049807;28;20950;-70
2021/12/26 19:13:14;;;;;;;11.67;8.40;;;10.20;99.90;;;;;;5049887;28;20464;-71
2021/12/26 19:15:41;;;;;;;12.83;7.00;;;10.10;99.90;;;;;;5049815;28;20481;-70
2021/12/26 19:18:08;;;;;;;12.60;8.60;;;10.10;99.90;;;;;;5049631;28;20496;-70
2021/12/26 19:20:35;;;;;;;12.40;8.30;;;9.90;99.90;;;;;;5049355;28;20977;-71
2021/12/26 19:23:02;;;;;;;12.60;7.73;;;9.90;99.90;;;;;;5049563;28;20462;-69
2021/12/26 19:25:30;;;;;;;11.53;7.10;;;10.00;99.90;;;;;;5049210;28;20978;-71
2021/12/26 19:28:00;;;;;;;11.70;7.70;;;10.10;99.90;;;;;;5049632;28;20503;-69
2021/12/26 19:30:27;;;;;;;11.70;7.00;;;10.00;99.90;;;;;;5049591;28;20453;-69
2021/12/26 19:32:55;;;;;;;10.60;6.73;;;10.00;99.90;;;;;;5049668;28;20508;-68
2021/12/26 19:35:22;;;;;;;11.20;7.40;;;10.00;99.90;;;;;;5049441;28;21023;-68
2021/12/26 19:37:49;;;;;;;14.43;8.33;;;9.70;99.90;;;;;;5049586;28;20493;-68
2021/12/26 19:40:18;;;;;;;11.60;7.87;;;9.80;99.90;;;;;;5049577;28;20518;-73
2021/12/26 19:42:48;;;;;;;10.83;7.27;;;9.80;99.90;;;;;;5049347;28;20509;-69
2021/12/26 19:45:19;;;;;;;12.33;8.30;;;9.80;99.90;;;;;;5049423;28;20531;-68
2021/12/26 19:47:46;;;;;;;15.43;8.33;;;9.80;99.90;;;;;;5049519;28;20871;-70
2021/12/26 19:50:14;;;;;;;10.40;7.70;;;10.00;99.90;;;;;;5049366;28;20464;-69
2021/12/26 19:52:41;;;;;;;14.30;8.47;;;9.90;99.90;;;;;;5049542;28;20454;-70
2021/12/26 19:55:10;;;;;;;13.50;8.50;;;9.80;99.90;;;;;;5048824;28;20534;-70
2021/12/26 19:57:37;;;;;;;12.13;8.10;;;9.80;99.90;;;;;;5049277;28;20567;-69
2021/12/26 20:00:06;;;;;;;14.47;9.30;;;9.80;99.90;;;;;;5049172;28;20528;-69
2021/12/26 20:02:34;;;;;;;13.50;8.50;;;9.80;99.90;;;;;;5049069;28;20461;-69
2021/12/26 20:05:02;;;;;;;13.20;9.07;;;9.80;99.90;;;;;;5049123;28;20978;-70
2021/12/26 20:07:29;;;;;;;13.23;9.40;;;9.90;99.90;;;;;;5049113;28;20458;-68
2021/12/26 20:09:56;;;;;;;14.47;10.43;;;10.00;99.90;;;;;;5049399;28;21058;-68
2021/12/26 20:12:24;;;;;;;17.30;11.73;;;10.00;99.90;;;;;;5049354;28;20521;-68
2021/12/26 20:14:52;;;;;;;16.10;11.40;;;9.80;99.90;;;;;;5049020;28;20504;-70
2021/12/26 20:17:19;;;;;;;13.43;9.20;;;9.80;99.90;;;;;;5049292;28;20496;-69
2021/12/26 20:19:47;;;;;;;14.53;9.50;;;9.70;99.90;;;;;;5049084;28;20461;-72
2021/12/26 20:22:14;;;;;;;14.20;9.97;;;9.60;99.90;;;;;;5049036;28;20460;-69
2021/12/26 20:24:42;;;;;;;15.03;9.63;;;9.80;99.90;;;;;;5048742;28;20971;-69
2021/12/26 20:27:10;;;;;;;14.93;9.77;;;9.70;99.90;;;;;;5048710;28;20453;-68
2021/12/26 20:29:38;;;;;;;15.57;10.37;;;9.70;99.90;;;;;;5049088;28;20457;-70
2021/12/26 20:32:07;;;;;;;15.53;9.60;;;9.80;99.90;;;;;;5049230;28;20446;-68
2021/12/26 20:34:35;;;;;;;14.70;9.87;;;9.90;99.90;;;;;;5047630;28;20967;-68
2021/12/26 20:37:04;;;;;;;16.00;10.20;;;9.80;99.90;;;;;;5048924;28;20895;-71
2021/12/26 20:39:33;;;;;;;19.83;10.40;;;9.80;99.90;;;;;;5048792;28;20457;-73
2021/12/26 20:42:00;;;;;;;18.77;11.27;;;9.60;99.90;;;;;;5048834;28;20461;-69
2021/12/26 20:44:27;;;;;;;13.63;10.67;;;9.60;99.90;;;;;;5048633;28;21043;-72
2021/12/26 20:46:56;;;;;;;16.87;10.97;;;9.80;99.90;;;;;;5049000;28;20454;-69